createdAt,value
2018-09-09T00:01:08.604Z,5.83
2018-09-09T00:03:36.561Z,6.10
2018-09-09T00:06:04.510Z,5.97
2018-09-09T00:08:32.496Z,5.97
2018-09-09T00:11:00.433Z,6.60
2018-09-09T00:13:32.079Z,6.00
2018-09-09T00:16:00.047Z,5.90
2018-09-09T00:18:27.987Z,6.17
2018-09-09T00:20:55.952Z,5.83
2018-09-09T00:23:24.765Z,5.87
2018-09-09T00:25:52.694Z,6.60
2018-09-09T00:28:20.628Z,6.40
2018-09-09T00:30:48.559Z,6.03
2018-09-09T00:33:16.486Z,6.07
2018-09-09T00:35:44.564Z,5.90
2018-09-09T00:38:12.621Z,6.37
2018-09-09T00:40:40.564Z,5.40
2018-09-09T00:43:08.629Z,5.80
2018-09-09T00:45:37.467Z,5.53
2018-09-09T00:48:06.434Z,6.33
2018-09-09T00:50:39.754Z,5.47
2018-09-09T00:53:13.088Z,6.00
2018-09-09T00:55:41.075Z,6.00
2018-09-09T00:58:09.002Z,5.67
2018-09-09T01:00:42.487Z,6.00
2018-09-09T01:03:10.474Z,5.77
2018-09-09T01:05:38.699Z,5.53
2018-09-09T01:08:06.656Z,5.43
2018-09-09T01:10:34.694Z,5.80
2018-09-09T01:13:02.641Z,5.83
2018-09-09T01:15:30.649Z,6.10
2018-09-09T01:17:58.709Z,6.00
2018-09-09T01:20:26.639Z,6.10
2018-09-09T01:22:54.609Z,5.93
2018-09-09T01:25:22.802Z,6.10
2018-09-09T01:27:50.763Z,6.00
2018-09-09T01:30:18.932Z,6.17
2018-09-09T01:32:46.893Z,6.27
2018-09-09T01:35:14.829Z,6.30
2018-09-09T01:37:42.832Z,6.00
2018-09-09T01:40:10.828Z,6.33
2018-09-09T01:42:38.800Z,6.03
2018-09-09T01:45:07.076Z,6.53
2018-09-09T01:47:35.024Z,6.13
2018-09-09T01:50:03.104Z,5.63
2018-09-09T01:52:31.030Z,5.83
2018-09-09T01:54:58.977Z,5.67
2018-09-09T01:57:27.178Z,5.70
2018-09-09T01:59:55.108Z,5.40
2018-09-09T02:02:23.058Z,6.20
2018-09-09T02:04:51.086Z,5.60
2018-09-09T02:07:19.005Z,5.53
2018-09-09T02:09:46.932Z,5.60
2018-09-09T02:12:15.522Z,5.17
2018-09-09T02:14:43.476Z,5.57
2018-09-09T02:17:11.568Z,5.37
2018-09-09T02:19:39.530Z,5.87
2018-09-09T02:22:07.743Z,5.27
2018-09-09T02:24:36.016Z,6.40
2018-09-09T02:27:03.946Z,5.67
2018-09-09T02:29:31.925Z,5.73
2018-09-09T02:31:59.914Z,5.83
2018-09-09T02:34:27.858Z,5.53
2018-09-09T02:36:55.818Z,5.73
2018-09-09T02:39:23.762Z,5.60
2018-09-09T02:41:51.696Z,5.47
2018-09-09T02:44:19.649Z,5.70
2018-09-09T02:46:47.642Z,5.57
2018-09-09T02:49:15.575Z,5.57
2018-09-09T02:51:43.538Z,5.50
2018-09-09T02:54:11.525Z,5.63
2018-09-09T02:56:39.464Z,5.20
2018-09-09T02:59:07.436Z,5.73
2018-09-09T03:01:35.380Z,5.47
2018-09-09T03:04:03.324Z,5.40
2018-09-09T03:06:31.256Z,5.27
2018-09-09T03:08:59.217Z,5.37
2018-09-09T03:14:01.602Z,5.50
2018-09-09T03:16:33.106Z,5.50
2018-09-09T03:19:07.424Z,5.50
2018-09-09T03:21:35.359Z,5.00
2018-09-09T03:24:03.310Z,5.57
2018-09-09T03:26:31.273Z,5.50
2018-09-09T03:28:59.225Z,6.93
2018-09-09T03:31:27.195Z,5.90
2018-09-09T03:33:55.207Z,5.80
2018-09-09T03:36:23.181Z,5.20
2018-09-09T03:38:51.466Z,6.40
2018-09-09T03:41:19.425Z,5.30
2018-09-09T03:43:47.452Z,5.53
2018-09-09T03:46:15.425Z,5.63
2018-09-09T03:48:43.459Z,5.63
2018-09-09T03:51:11.404Z,6.13
2018-09-09T03:53:39.356Z,6.00
2018-09-09T03:56:07.368Z,5.80
2018-09-09T03:58:35.613Z,5.50
2018-09-09T04:01:03.607Z,5.60
2018-09-09T04:03:31.597Z,6.20
2018-09-09T04:05:59.546Z,5.57
2018-09-09T04:08:27.488Z,5.60
2018-09-09T04:10:55.449Z,5.63
2018-09-09T04:13:23.404Z,5.53
2018-09-09T04:15:51.746Z,5.80
2018-09-09T04:18:19.733Z,5.20
2018-09-09T04:20:47.717Z,5.70
2018-09-09T04:23:15.704Z,6.00
2018-09-09T04:25:43.652Z,5.37
2018-09-09T04:28:11.614Z,5.40
2018-09-09T04:30:39.591Z,5.67
2018-09-09T04:33:07.533Z,6.10
2018-09-09T04:35:35.492Z,6.40
2018-09-09T04:38:03.503Z,5.90
2018-09-09T04:40:31.460Z,5.90
2018-09-09T04:42:59.427Z,5.83
2018-09-09T04:45:27.367Z,5.70
2018-09-09T04:47:59.072Z,6.83
2018-09-09T04:50:27.544Z,5.87
2018-09-09T04:52:55.521Z,5.43
2018-09-09T04:55:23.484Z,6.10
2018-09-09T04:57:51.457Z,6.07
2018-09-09T05:00:19.436Z,6.40
2018-09-09T05:02:47.378Z,6.47
2018-09-09T05:05:15.335Z,5.80
2018-09-09T05:07:43.384Z,5.40
2018-09-09T05:10:11.387Z,6.00
2018-09-09T05:12:39.504Z,5.37
2018-09-09T05:15:07.544Z,6.00
2018-09-09T05:17:35.860Z,5.97
2018-09-09T05:20:04.075Z,6.00
2018-09-09T05:22:32.024Z,6.30
2018-09-09T05:25:00.036Z,5.63
2018-09-09T05:27:27.982Z,5.27
2018-09-09T05:29:56.012Z,5.70
2018-09-09T05:32:23.936Z,4.90
2018-09-09T05:34:51.927Z,5.70
2018-09-09T05:37:19.892Z,5.10
2018-09-09T05:39:47.844Z,5.53
2018-09-09T05:42:15.954Z,4.70
2018-09-09T05:44:44.038Z,5.93
2018-09-09T05:47:11.968Z,5.40
2018-09-09T05:49:39.907Z,4.73
2018-09-09T05:52:07.864Z,5.43
2018-09-09T05:54:35.818Z,4.83
2018-09-09T05:57:03.855Z,5.07
2018-09-09T05:59:31.790Z,5.00
2018-09-09T06:01:59.750Z,4.73
2018-09-09T06:04:27.750Z,5.27
2018-09-09T06:06:55.693Z,5.33
2018-09-09T06:09:23.632Z,4.93
2018-09-09T06:11:51.684Z,5.27
2018-09-09T06:14:19.640Z,4.20
2018-09-09T06:16:47.595Z,5.37
2018-09-09T06:19:15.944Z,5.10
2018-09-09T06:21:44.042Z,4.60
2018-09-09T06:24:11.975Z,5.00
2018-09-09T06:26:41.011Z,4.43
2018-09-09T06:29:08.930Z,4.87
2018-09-09T06:31:36.867Z,4.77
2018-09-09T06:34:04.815Z,4.80
2018-09-09T06:36:33.159Z,5.00
2018-09-09T06:39:01.190Z,4.90
2018-09-09T06:41:29.196Z,4.77
2018-09-09T06:43:57.189Z,4.67
2018-09-09T06:46:25.194Z,4.87
2018-09-09T06:48:53.270Z,4.63
2018-09-09T06:51:21.302Z,4.80
2018-09-09T06:53:49.207Z,4.50
2018-09-09T06:56:17.148Z,4.80
2018-09-09T06:58:46.237Z,4.83
2018-09-09T07:01:14.208Z,4.90
2018-09-09T07:03:42.162Z,5.50
2018-09-09T07:06:10.132Z,4.90
2018-09-09T07:08:38.827Z,5.17
2018-09-09T07:11:07.067Z,5.60
2018-09-09T07:13:35.110Z,5.30
2018-09-09T07:16:03.059Z,5.20
2018-09-09T07:18:31.166Z,4.90
2018-09-09T07:20:59.738Z,5.37
2018-09-09T07:23:27.677Z,5.37
2018-09-09T07:25:55.695Z,5.50
2018-09-09T07:28:23.697Z,5.83
2018-09-09T07:30:51.872Z,4.97
2018-09-09T07:33:19.838Z,5.13
2018-09-09T07:38:21.406Z,6.17
2018-09-09T07:40:49.410Z,5.00
2018-09-09T07:43:20.795Z,5.47
2018-09-09T07:45:48.808Z,5.20
2018-09-09T07:48:16.822Z,5.43
2018-09-09T07:50:44.939Z,4.90
2018-09-09T07:53:12.791Z,5.33
2018-09-09T07:55:41.557Z,4.50
2018-09-09T07:58:09.680Z,5.40
2018-09-09T08:00:37.631Z,4.67
2018-09-09T08:03:05.874Z,5.00
2018-09-09T08:05:33.855Z,5.00
2018-09-09T08:08:01.806Z,4.80
2018-09-09T08:10:30.031Z,4.97
2018-09-09T08:12:57.977Z,4.63
2018-09-09T08:15:26.180Z,5.27
2018-09-09T08:17:54.193Z,4.87
2018-09-09T08:20:22.151Z,5.00
2018-09-09T08:22:50.085Z,4.27
2018-09-09T08:25:18.164Z,4.60
2018-09-09T08:27:46.242Z,4.60
2018-09-09T08:30:14.212Z,4.50
2018-09-09T08:32:49.723Z,4.37
2018-09-09T08:35:17.687Z,4.63
2018-09-09T08:37:45.664Z,4.77
2018-09-09T08:40:13.878Z,4.63
2018-09-09T08:42:41.830Z,4.90
2018-09-09T08:45:09.793Z,4.70
2018-09-09T08:47:38.017Z,4.10
2018-09-09T08:50:06.001Z,4.10
2018-09-09T08:52:33.952Z,4.20
2018-09-09T08:55:01.908Z,4.30
2018-09-09T08:57:29.885Z,4.53
2018-09-09T08:59:57.812Z,3.90
2018-09-09T09:02:25.783Z,4.50
2018-09-09T09:04:53.723Z,4.33
2018-09-09T09:07:21.682Z,4.63
2018-09-09T09:09:49.885Z,4.43
2018-09-09T09:12:18.401Z,4.30
2018-09-09T09:14:46.369Z,4.07
2018-09-09T09:17:14.591Z,4.20
2018-09-09T09:19:42.528Z,4.10
2018-09-09T09:22:10.467Z,4.00
2018-09-09T09:24:38.427Z,3.57
2018-09-09T09:27:06.370Z,4.27
2018-09-09T09:29:39.691Z,3.90
2018-09-09T09:32:07.818Z,3.97
2018-09-09T09:34:35.796Z,3.90
2018-09-09T09:37:03.734Z,3.70
2018-09-09T09:39:31.723Z,3.73
2018-09-09T09:41:59.740Z,3.60
2018-09-09T09:44:27.691Z,3.73
2018-09-09T09:46:55.683Z,3.57
2018-09-09T09:49:23.634Z,3.53
2018-09-09T09:51:51.685Z,3.40
2018-09-09T09:54:19.667Z,3.37
2018-09-09T09:56:47.601Z,3.70
2018-09-09T09:59:15.548Z,3.50
2018-09-09T10:01:44.230Z,3.50
2018-09-09T10:04:12.208Z,3.20
2018-09-09T10:06:40.153Z,3.90
2018-09-09T10:09:08.150Z,3.00
2018-09-09T10:11:36.059Z,3.17
2018-09-09T10:14:03.992Z,3.10
2018-09-09T10:16:31.923Z,2.97
2018-09-09T10:18:59.891Z,3.60
2018-09-09T10:21:27.848Z,3.60
2018-09-09T10:23:55.928Z,3.10
2018-09-09T10:26:24.032Z,3.10
2018-09-09T10:28:51.976Z,3.33
2018-09-09T10:31:19.910Z,3.80
2018-09-09T10:33:47.875Z,3.53
2018-09-09T10:36:15.819Z,3.23
2018-09-09T10:38:47.161Z,2.80
2018-09-09T10:41:15.546Z,3.10
2018-09-09T10:43:43.500Z,3.53
2018-09-09T10:46:11.663Z,3.43
2018-09-09T10:48:39.539Z,4.00
2018-09-09T10:51:07.495Z,3.10
2018-09-09T10:53:35.449Z,2.77
2018-09-09T10:56:03.400Z,2.67
2018-09-09T10:58:31.539Z,2.57
2018-09-09T11:00:59.500Z,3.37
2018-09-09T11:03:27.438Z,6.60
2018-09-09T11:05:55.388Z,2.90
2018-09-09T11:08:24.092Z,2.90
2018-09-09T11:10:52.100Z,2.60
2018-09-09T11:13:20.038Z,2.90
2018-09-09T11:15:49.069Z,3.13
2018-09-09T11:18:17.088Z,2.80
2018-09-09T11:20:45.310Z,2.20
2018-09-09T11:23:13.234Z,2.40
2018-09-09T11:25:41.171Z,2.47
2018-09-09T11:28:09.125Z,2.30
2018-09-09T11:30:37.056Z,2.10
2018-09-09T11:33:05.219Z,2.33
2018-09-09T11:35:33.153Z,2.70
2018-09-09T11:38:01.108Z,2.90
2018-09-09T11:40:29.108Z,3.10
2018-09-09T11:42:57.099Z,2.60
2018-09-09T11:45:25.023Z,2.53
2018-09-09T11:47:52.964Z,2.63
2018-09-09T11:50:21.159Z,2.27
2018-09-09T11:52:49.093Z,2.10
2018-09-09T11:55:17.036Z,2.10
2018-09-09T11:57:44.979Z,2.20
2018-09-09T12:00:13.018Z,2.40
2018-09-09T12:02:41.002Z,2.33
2018-09-09T12:05:09.212Z,2.50
2018-09-09T12:07:37.286Z,2.47
2018-09-09T12:10:05.889Z,2.53
2018-09-09T12:12:33.902Z,2.50
2018-09-09T12:15:01.934Z,2.70
2018-09-09T12:17:29.874Z,2.33
2018-09-09T12:19:57.860Z,2.30
2018-09-09T12:22:25.883Z,2.50
2018-09-09T12:24:53.800Z,2.80
2018-09-09T12:27:21.782Z,2.20
2018-09-09T12:29:50.010Z,2.30
2018-09-09T12:32:18.059Z,2.67
2018-09-09T12:34:45.922Z,2.60
2018-09-09T12:37:13.918Z,3.00
2018-09-09T12:39:41.865Z,2.30
2018-09-09T12:42:09.821Z,2.53
2018-09-09T12:44:43.302Z,2.30
2018-09-09T12:47:16.793Z,2.50
2018-09-09T12:49:44.600Z,2.60
2018-09-09T12:52:12.534Z,3.73
2018-09-09T12:54:40.489Z,3.67
2018-09-09T12:57:08.452Z,2.30
2018-09-09T12:59:36.404Z,2.93
2018-09-09T13:02:04.384Z,6.33
2018-09-09T13:04:32.350Z,14.90
2018-09-09T13:07:00.316Z,4.70
2018-09-09T13:09:28.350Z,3.20
2018-09-09T13:11:56.318Z,5.23
2018-09-09T13:14:24.273Z,3.20
2018-09-09T13:16:52.231Z,2.40
2018-09-09T13:19:20.164Z,2.27
2018-09-09T13:21:48.120Z,2.50
2018-09-09T13:24:16.108Z,1.90
2018-09-09T13:26:44.048Z,2.00
2018-09-09T13:29:12.012Z,2.33
2018-09-09T13:31:40.105Z,2.60
2018-09-09T13:34:08.049Z,1.80
2018-09-09T13:36:36.254Z,1.80
2018-09-09T13:39:05.972Z,1.83
2018-09-09T13:41:33.944Z,1.70
2018-09-09T13:44:02.020Z,1.90
2018-09-09T13:46:29.950Z,2.50
2018-09-09T13:48:57.934Z,2.20
2018-09-09T13:51:25.902Z,2.23
2018-09-09T13:53:53.860Z,2.50
2018-09-09T13:56:21.792Z,2.20
2018-09-09T13:58:49.754Z,2.20
2018-09-09T14:01:17.731Z,1.77
2018-09-09T14:03:45.750Z,2.23
2018-09-09T14:06:13.700Z,1.90
2018-09-09T14:08:41.676Z,2.33
2018-09-09T14:11:09.599Z,2.13
2018-09-09T14:13:37.929Z,1.97
2018-09-09T14:16:06.120Z,2.27
2018-09-09T14:18:34.118Z,2.20
2018-09-09T14:21:02.072Z,2.03
2018-09-09T14:23:30.018Z,1.77
2018-09-09T14:25:58.000Z,2.10
2018-09-09T14:28:25.989Z,2.40
2018-09-09T14:30:54.012Z,2.03
2018-09-09T14:33:21.964Z,1.90
2018-09-09T14:35:49.911Z,2.03
2018-09-09T14:38:17.857Z,2.13
2018-09-09T14:40:45.783Z,1.90
2018-09-09T14:43:13.744Z,2.50
2018-09-09T14:45:41.994Z,3.20
2018-09-09T14:48:09.947Z,2.20
2018-09-09T14:50:37.877Z,2.40
2018-09-09T14:53:06.140Z,2.30
2018-09-09T14:55:34.019Z,2.83
2018-09-09T14:58:03.898Z,2.50
2018-09-09T15:00:32.175Z,2.33
2018-09-09T15:03:00.134Z,2.13
2018-09-09T15:05:28.120Z,2.50
2018-09-09T15:07:56.353Z,2.20
2018-09-09T15:10:24.304Z,2.30
2018-09-09T15:12:52.235Z,2.10
2018-09-09T15:15:20.237Z,2.50
2018-09-09T15:17:48.183Z,2.40
2018-09-09T15:20:16.142Z,2.63
2018-09-09T15:22:44.093Z,2.50
2018-09-09T15:25:12.056Z,2.50
2018-09-09T15:27:39.982Z,2.30
2018-09-09T15:30:07.931Z,1.97
2018-09-09T15:32:35.921Z,2.07
2018-09-09T15:35:03.940Z,2.10
2018-09-09T15:37:31.890Z,1.93
2018-09-09T15:39:59.908Z,2.10
2018-09-09T15:42:27.816Z,2.07
2018-09-09T15:44:56.056Z,2.20
2018-09-09T15:47:24.005Z,2.20
2018-09-09T15:49:51.941Z,1.80
2018-09-09T15:52:20.072Z,2.40
2018-09-09T15:54:48.049Z,2.67
2018-09-09T15:57:16.018Z,2.20
2018-09-09T15:59:43.968Z,2.30
2018-09-09T16:02:12.955Z,2.50
2018-09-09T16:04:41.170Z,2.40
2018-09-09T16:07:09.125Z,2.40
2018-09-09T16:09:37.089Z,2.13
2018-09-09T16:12:05.101Z,2.60
2018-09-09T16:14:33.005Z,3.23
2018-09-09T16:17:01.202Z,2.97
2018-09-09T16:19:30.220Z,2.83
2018-09-09T16:21:58.161Z,2.43
2018-09-09T16:24:26.182Z,2.20
2018-09-09T16:26:54.405Z,2.00
2018-09-09T16:29:22.412Z,2.33
2018-09-09T16:31:50.363Z,5.57
2018-09-09T16:34:18.425Z,2.80
2018-09-09T16:36:46.353Z,2.07
2018-09-09T16:39:14.512Z,2.20
2018-09-09T16:41:42.472Z,2.87
2018-09-09T16:44:10.687Z,4.97
2018-09-09T16:46:38.827Z,7.23
2018-09-09T16:49:06.853Z,3.10
2018-09-09T16:51:34.815Z,1.80
2018-09-09T16:54:02.763Z,1.90
2018-09-09T16:56:30.763Z,4.33
2018-09-09T16:58:58.864Z,1.80
2018-09-09T17:01:27.541Z,2.60
2018-09-09T17:03:55.649Z,6.93
2018-09-09T17:06:23.920Z,2.70
2018-09-09T17:08:54.229Z,3.73
2018-09-09T17:11:22.276Z,1.90
2018-09-09T17:13:50.263Z,1.80
2018-09-09T17:16:18.371Z,1.60
2018-09-09T17:18:46.500Z,1.87
2018-09-09T17:21:14.459Z,2.07
2018-09-09T17:23:42.418Z,1.90
2018-09-09T17:26:10.553Z,2.00
2018-09-09T17:28:38.556Z,2.10
2018-09-09T17:31:06.504Z,2.80
2018-09-09T17:33:34.502Z,2.00
2018-09-09T17:36:02.476Z,2.50
2018-09-09T17:38:30.831Z,2.47
2018-09-09T17:40:58.836Z,2.80
2018-09-09T17:43:26.889Z,3.07
2018-09-09T17:45:54.910Z,3.03
2018-09-09T17:48:22.943Z,2.50
2018-09-09T17:50:50.914Z,2.90
2018-09-09T17:53:18.894Z,3.50
2018-09-09T17:55:46.946Z,3.30
2018-09-09T17:58:14.919Z,3.60
2018-09-09T18:00:42.901Z,3.90
2018-09-09T18:03:11.065Z,3.97
2018-09-09T18:05:39.047Z,4.23
2018-09-09T18:08:07.006Z,4.07
2018-09-09T18:10:34.967Z,4.10
2018-09-09T18:13:02.948Z,3.30
2018-09-09T18:15:31.026Z,3.47
2018-09-09T18:17:59.064Z,3.20
2018-09-09T18:20:27.221Z,3.53
2018-09-09T18:22:55.330Z,3.43
2018-09-09T18:25:23.200Z,4.13
2018-09-09T18:27:51.187Z,4.20
2018-09-09T18:30:19.117Z,4.00
2018-09-09T18:32:47.413Z,3.97
2018-09-09T18:35:15.323Z,3.80
2018-09-09T18:37:43.246Z,4.30
2018-09-09T18:40:11.224Z,4.00
2018-09-09T18:42:39.216Z,4.10
2018-09-09T18:45:08.179Z,3.63
2018-09-09T18:47:36.116Z,5.07
2018-09-09T18:50:04.456Z,4.57
2018-09-09T18:52:32.525Z,4.60
2018-09-09T18:55:00.599Z,4.47
2018-09-09T18:57:28.698Z,4.53
2018-09-09T18:59:56.656Z,4.37
2018-09-09T19:02:24.676Z,4.70
2018-09-09T19:04:52.607Z,5.00
2018-09-09T19:07:26.488Z,4.70
2018-09-09T19:09:54.414Z,5.40
2018-09-09T19:12:22.378Z,5.40
2018-09-09T19:14:50.395Z,5.43
2018-09-09T19:17:22.021Z,5.13
2018-09-09T19:19:49.981Z,6.13
2018-09-09T19:22:18.001Z,6.13
2018-09-09T19:24:45.992Z,6.63
2018-09-09T19:27:14.015Z,5.70
2018-09-09T19:29:41.959Z,6.67
2018-09-09T19:32:09.956Z,6.67
2018-09-09T19:34:37.945Z,6.30
2018-09-09T19:37:05.992Z,6.47
2018-09-09T19:39:33.956Z,5.33
2018-09-09T19:42:01.973Z,6.27
2018-09-09T19:44:29.944Z,6.90
2018-09-09T19:46:57.885Z,5.77
2018-09-09T19:49:25.963Z,7.03
2018-09-09T19:51:53.916Z,6.53
2018-09-09T19:54:22.287Z,6.73
2018-09-09T19:56:50.254Z,6.33
2018-09-09T19:59:18.244Z,6.87
2018-09-09T20:01:46.216Z,7.07
2018-09-09T20:04:14.154Z,6.43
2018-09-09T20:06:42.120Z,7.20
2018-09-09T20:09:10.080Z,8.03
2018-09-09T20:11:38.348Z,6.50
2018-09-09T20:14:06.662Z,6.37
2018-09-09T20:16:34.652Z,6.40
2018-09-09T20:19:02.607Z,7.03
2018-09-09T20:21:30.588Z,6.83
2018-09-09T20:23:58.577Z,7.13
2018-09-09T20:26:26.806Z,6.67
2018-09-09T20:28:54.851Z,7.30
2018-09-09T20:31:22.806Z,7.77
2018-09-09T20:33:51.091Z,6.80
2018-09-09T20:36:19.102Z,6.40
2018-09-09T20:38:47.078Z,5.80
2018-09-09T20:41:14.986Z,5.90
2018-09-09T20:43:42.935Z,5.77
2018-09-09T20:46:10.880Z,5.57
2018-09-09T20:48:38.856Z,4.50
2018-09-09T20:51:06.631Z,5.67
2018-09-09T20:53:34.930Z,5.00
2018-09-09T20:56:02.875Z,5.07
2018-09-09T20:58:31.267Z,4.80
2018-09-09T21:00:59.346Z,4.33
2018-09-09T21:03:27.296Z,5.37
2018-09-09T21:05:55.263Z,5.23
2018-09-09T21:08:23.228Z,5.33
2018-09-09T21:10:51.305Z,5.13
2018-09-09T21:13:19.229Z,5.33
2018-09-09T21:15:47.189Z,5.67
2018-09-09T21:18:15.214Z,4.87
2018-09-09T21:20:43.152Z,5.20
2018-09-09T21:23:11.162Z,5.23
2018-09-09T21:25:39.088Z,5.17
2018-09-09T21:28:07.092Z,5.13
2018-09-09T21:30:35.072Z,5.50
2018-09-09T21:33:03.126Z,5.90
2018-09-09T21:35:31.072Z,5.70
2018-09-09T21:37:59.127Z,5.93
2018-09-09T21:40:27.088Z,5.97
2018-09-09T21:42:55.133Z,5.30
2018-09-09T21:45:23.071Z,5.33
2018-09-09T21:47:51.152Z,5.53
2018-09-09T21:50:19.092Z,5.27
2018-09-09T21:52:47.022Z,5.57
2018-09-09T21:55:14.961Z,5.73
2018-09-09T21:57:42.910Z,5.30
2018-09-09T22:00:12.044Z,5.20
2018-09-09T22:02:41.601Z,5.07
2018-09-09T22:05:09.551Z,5.10
2018-09-09T22:07:37.829Z,5.77
2018-09-09T22:10:05.859Z,6.20
2018-09-09T22:12:33.821Z,6.40
2018-09-09T22:15:01.750Z,6.47
2018-09-09T22:17:29.695Z,5.57
2018-09-09T22:19:57.657Z,5.67
2018-09-09T22:22:25.620Z,5.70
2018-09-09T22:24:53.830Z,5.80
2018-09-09T22:27:21.771Z,6.50
2018-09-09T22:29:49.816Z,5.73
2018-09-09T22:32:17.855Z,5.77
2018-09-09T22:34:45.818Z,5.80
2018-09-09T22:37:13.813Z,5.40
2018-09-09T22:39:41.756Z,5.60
2018-09-09T22:42:09.704Z,6.00
2018-09-09T22:44:37.653Z,6.40
2018-09-09T22:47:05.589Z,8.13
2018-09-09T22:49:33.544Z,7.37
2018-09-09T22:52:01.509Z,5.80
2018-09-09T22:54:29.453Z,5.90
2018-09-09T22:56:57.395Z,5.83
2018-09-09T22:59:25.348Z,5.90
2018-09-09T23:01:53.304Z,6.00
2018-09-09T23:04:21.257Z,5.40
2018-09-09T23:06:49.215Z,5.07
2018-09-09T23:09:17.308Z,5.40
2018-09-09T23:11:45.225Z,4.90
2018-09-09T23:14:13.158Z,5.63
2018-09-09T23:16:41.116Z,5.33
2018-09-09T23:19:09.063Z,5.37
2018-09-09T23:21:36.987Z,5.37
2018-09-09T23:24:04.929Z,5.60
2018-09-09T23:26:32.873Z,5.60
2018-09-09T23:29:00.812Z,5.83
2018-09-09T23:31:28.760Z,5.30
2018-09-09T23:33:56.699Z,5.67
2018-09-09T23:36:24.645Z,5.60
2018-09-09T23:38:52.595Z,5.77
2018-09-09T23:41:20.537Z,5.40
2018-09-09T23:43:48.484Z,5.50
2018-09-09T23:46:16.430Z,5.33
2018-09-09T23:48:44.382Z,6.13
2018-09-09T23:51:12.317Z,5.37
2018-09-09T23:53:40.254Z,6.60
2018-09-09T23:56:08.192Z,5.77
2018-09-09T23:58:36.135Z,5.47
